sensor_id;sensor_type;location;lat;lon;timestamp;pressure;altitude;pressure_sealevel;temperature;humidity
33496;BME280;19836;55.812;37.560;2023-07-16T00:00:31;99318.66;;;16.98;84.99
33496;BME280;19836;55.812;37.560;2023-07-16T00:02:58;99326.88;;;16.97;84.87
33496;BME280;19836;55.812;37.560;2023-07-16T00:05:24;99331.41;;;16.96;85.17
33496;BME280;19836;55.812;37.560;2023-07-16T00:07:50;99330.63;;;16.94;84.86
33496;BME280;19836;55.812;37.560;2023-07-16T00:10:16;99325.97;;;16.96;85.38
33496;BME280;19836;55.812;37.560;2023-07-16T00:12:42;99330.47;;;16.97;85.32
33496;BME280;19836;55.812;37.560;2023-07-16T00:15:09;99333.03;;;16.99;85.28
33496;BME280;19836;55.812;37.560;2023-07-16T00:17:35;99325.63;;;17.02;85.26
33496;BME280;19836;55.812;37.560;2023-07-16T00:20:01;99329.97;;;17.05;85.26
33496;BME280;19836;55.812;37.560;2023-07-16T00:22:31;99329.84;;;17.06;85.10
33496;BME280;19836;55.812;37.560;2023-07-16T00:24:57;99331.81;;;17.04;85.05
33496;BME280;19836;55.812;37.560;2023-07-16T00:27:23;99329.97;;;17.05;84.66
33496;BME280;19836;55.812;37.560;2023-07-16T00:29:49;99339.03;;;17.04;84.96
33496;BME280;19836;55.812;37.560;2023-07-16T00:32:15;99333.63;;;17.04;84.92
33496;BME280;19836;55.812;37.560;2023-07-16T00:34:41;99338.88;;;17.07;84.71
33496;BME280;19836;55.812;37.560;2023-07-16T00:37:08;99335.28;;;17.06;84.89
33496;BME280;19836;55.812;37.560;2023-07-16T00:39:34;99330.84;;;17.05;84.54
33496;BME280;19836;55.812;37.560;2023-07-16T00:42:00;99339.94;;;17.04;84.58
33496;BME280;19836;55.812;37.560;2023-07-16T00:44:25;99331.81;;;17.04;84.60
33496;BME280;19836;55.812;37.560;2023-07-16T00:46:51;99331.81;;;17.04;84.38
33496;BME280;19836;55.812;37.560;2023-07-16T00:49:18;99330.06;;;17.03;84.45
33496;BME280;19836;55.812;37.560;2023-07-16T00:51:44;99336.44;;;17.02;84.57
33496;BME280;19836;55.812;37.560;2023-07-16T00:54:11;99344.44;;;17.04;84.83
33496;BME280;19836;55.812;37.560;2023-07-16T00:56:37;99339.94;;;17.04;84.70
33496;BME280;19836;55.812;37.560;2023-07-16T00:59:03;99334.50;;;17.04;84.69
33496;BME280;19836;55.812;37.560;2023-07-16T01:01:29;99337.31;;;17.03;84.45
33496;BME280;19836;55.812;37.560;2023-07-16T01:03:55;99339.94;;;17.04;84.32
33496;BME280;19836;55.812;37.560;2023-07-16T01:06:26;99344.28;;;17.07;84.52
33496;BME280;19836;55.812;37.560;2023-07-16T01:09:06;99347.88;;;17.07;84.60
33496;BME280;19836;55.812;37.560;2023-07-16T01:11:34;99340.81;;;17.05;84.50
33496;BME280;19836;55.812;37.560;2023-07-16T01:14:05;99350.00;;;17.02;84.59
33496;BME280;19836;55.812;37.560;2023-07-16T01:16:33;99350.25;;;16.98;84.63
33496;BME280;19836;55.812;37.560;2023-07-16T01:18:59;99354.03;;;16.95;84.77
33496;BME280;19836;55.812;37.560;2023-07-16T01:21:31;99360.59;;;16.91;84.90
33496;BME280;19836;55.812;37.560;2023-07-16T01:27:09;99362.53;;;16.89;85.02
33496;BME280;19836;55.812;37.560;2023-07-16T01:29:51;99359.34;;;16.97;85.05
33496;BME280;19836;55.812;37.560;2023-07-16T01:32:20;99357.63;;;16.96;84.16
33496;BME280;19836;55.812;37.560;2023-07-16T01:34:47;99359.44;;;16.95;84.52
33496;BME280;19836;55.812;37.560;2023-07-16T01:37:14;99366.50;;;16.98;84.36
33496;BME280;19836;55.812;37.560;2023-07-16T01:39:40;99367.38;;;16.98;84.04
33496;BME280;19836;55.812;37.560;2023-07-16T01:42:07;99361.97;;;16.98;84.08
33496;BME280;19836;55.812;37.560;2023-07-16T01:44:33;99368.94;;;17.02;84.30
33496;BME280;19836;55.812;37.560;2023-07-16T01:49:32;99370.09;;;17.12;83.63
33496;BME280;19836;55.812;37.560;2023-07-16T01:52:00;99373.66;;;17.13;83.86
33496;BME280;19836;55.812;37.560;2023-07-16T01:54:27;99369.91;;;17.15;83.47
33496;BME280;19836;55.812;37.560;2023-07-16T01:56:53;99370.69;;;17.17;83.42
33496;BME280;19836;55.812;37.560;2023-07-16T01:59:18;99376.88;;;17.19;83.23
33496;BME280;19836;55.812;37.560;2023-07-16T02:01:44;99371.38;;;17.21;83.30
33496;BME280;19836;55.812;37.560;2023-07-16T02:04:10;99373.97;;;17.22;83.05
33496;BME280;19836;55.812;37.560;2023-07-16T02:06:36;99370.31;;;17.23;83.13
33496;BME280;19836;55.812;37.560;2023-07-16T02:09:03;99371.28;;;17.22;82.95
33496;BME280;19836;55.812;37.560;2023-07-16T02:11:29;99379.97;;;17.27;83.22
33496;BME280;19836;55.812;37.560;2023-07-16T02:13:55;99374.34;;;17.30;83.23
33496;BME280;19836;55.812;37.560;2023-07-16T02:16:21;99375.22;;;17.31;82.89
33496;BME280;19836;55.812;37.560;2023-07-16T02:18:46;99375.16;;;17.32;82.75
33496;BME280;19836;55.812;37.560;2023-07-16T02:21:12;99378.69;;;17.33;82.69
33496;BME280;19836;55.812;37.560;2023-07-16T02:23:38;99373.19;;;17.34;82.75
33496;BME280;19836;55.812;37.560;2023-07-16T02:26:04;99385.69;;;17.37;83.08
33496;BME280;19836;55.812;37.560;2023-07-16T02:28:31;99382.00;;;17.38;83.07
33496;BME280;19836;55.812;37.560;2023-07-16T02:30:58;99388.13;;;17.41;82.86
33496;BME280;19836;55.812;37.560;2023-07-16T02:33:24;99393.34;;;17.44;82.55
33496;BME280;19836;55.812;37.560;2023-07-16T02:35:50;99384.25;;;17.45;82.57
33496;BME280;19836;55.812;37.560;2023-07-16T02:38:17;99380.38;;;17.49;82.46
33496;BME280;19836;55.812;37.560;2023-07-16T02:40:44;99382.69;;;17.55;82.48
33496;BME280;19836;55.812;37.560;2023-07-16T02:43:10;99385.00;;;17.61;82.21
33496;BME280;19836;55.812;37.560;2023-07-16T02:45:37;99385.41;;;17.69;81.88
33496;BME280;19836;55.812;37.560;2023-07-16T02:48:05;99395.94;;;17.74;81.76
33496;BME280;19836;55.812;37.560;2023-07-16T02:50:35;99390.22;;;17.78;81.44
33496;BME280;19836;55.812;37.560;2023-07-16T02:53:06;99389.25;;;17.79;81.65
33496;BME280;19836;55.812;37.560;2023-07-16T02:55:32;99390.97;;;17.80;81.77
33496;BME280;19836;55.812;37.560;2023-07-16T02:57:58;99397.19;;;17.82;81.36
33496;BME280;19836;55.812;37.560;2023-07-16T03:00:27;99398.94;;;17.83;81.11
33496;BME280;19836;55.812;37.560;2023-07-16T03:02:53;99404.03;;;17.88;80.98
33496;BME280;19836;55.812;37.560;2023-07-16T03:05:20;99399.41;;;17.90;81.16
33496;BME280;19836;55.812;37.560;2023-07-16T03:07:45;99408.22;;;17.93;81.06
33496;BME280;19836;55.812;37.560;2023-07-16T03:10:11;99402.66;;;17.95;80.83
33496;BME280;19836;55.812;37.560;2023-07-16T03:12:37;99416.91;;;17.98;80.79
33496;BME280;19836;55.812;37.560;2023-07-16T03:15:05;99418.44;;;18.02;80.65
33496;BME280;19836;55.812;37.560;2023-07-16T03:17:32;99418.34;;;18.04;80.54
33496;BME280;19836;55.812;37.560;2023-07-16T03:19:58;99415.72;;;18.02;80.48
33496;BME280;19836;55.812;37.560;2023-07-16T03:22:24;99412.25;;;18.00;80.61
33496;BME280;19836;55.812;37.560;2023-07-16T03:24:51;99413.22;;;17.99;80.57
33496;BME280;19836;55.812;37.560;2023-07-16T03:27:16;99406.63;;;18.03;80.58
33496;BME280;19836;55.812;37.560;2023-07-16T03:29:43;99408.06;;;18.09;80.34
33496;BME280;19836;55.812;37.560;2023-07-16T03:32:13;99410.47;;;18.13;80.36
33496;BME280;19836;55.812;37.560;2023-07-16T03:34:39;99419.19;;;18.18;80.00
33496;BME280;19836;55.812;37.560;2023-07-16T03:37:05;99418.00;;;18.22;79.86
33496;BME280;19836;55.812;37.560;2023-07-16T03:39:32;99418.00;;;18.22;79.48
33496;BME280;19836;55.812;37.560;2023-07-16T03:41:57;99425.56;;;18.17;79.52
33496;BME280;19836;55.812;37.560;2023-07-16T03:44:24;99423.06;;;18.14;79.33
33496;BME280;19836;55.812;37.560;2023-07-16T03:46:50;99423.06;;;18.14;79.44
33496;BME280;19836;55.812;37.560;2023-07-16T03:49:15;99428.50;;;18.14;79.30
33496;BME280;19836;55.812;37.560;2023-07-16T03:51:41;99428.50;;;18.14;79.30
33496;BME280;19836;55.812;37.560;2023-07-16T03:54:09;99423.81;;;18.16;79.26
33496;BME280;19836;55.812;37.560;2023-07-16T03:56:35;99431.78;;;18.19;79.12
33496;BME280;19836;55.812;37.560;2023-07-16T03:59:02;99431.16;;;18.28;79.15
33496;BME280;19836;55.812;37.560;2023-07-16T04:01:29;99436.00;;;18.37;78.76
33496;BME280;19836;55.812;37.560;2023-07-16T04:03:56;99434.41;;;18.47;78.76
33496;BME280;19836;55.812;37.560;2023-07-16T04:06:22;99433.78;;;18.56;78.28
33496;BME280;19836;55.812;37.560;2023-07-16T04:08:47;99430.56;;;18.64;77.91
33496;BME280;19836;55.812;37.560;2023-07-16T04:11:13;99436.00;;;18.64;77.73
33496;BME280;19836;55.812;37.560;2023-07-16T04:13:39;99441.53;;;18.62;77.74
33496;BME280;19836;55.812;37.560;2023-07-16T04:16:05;99446.09;;;18.62;77.65
33496;BME280;19836;55.812;37.560;2023-07-16T04:18:31;99443.47;;;18.60;77.93
33496;BME280;19836;55.812;37.560;2023-07-16T04:20:57;99445.53;;;18.57;77.67
33496;BME280;19836;55.812;37.560;2023-07-16T04:23:23;99440.97;;;18.57;77.82
33496;BME280;19836;55.812;37.560;2023-07-16T04:25:53;99443.47;;;18.60;77.70
33496;BME280;19836;55.812;37.560;2023-07-16T04:28:19;99452.38;;;18.62;77.33
33496;BME280;19836;55.812;37.560;2023-07-16T04:30:45;99450.88;;;18.58;77.69
33496;BME280;19836;55.812;37.560;2023-07-16T04:33:11;99455.41;;;18.58;77.67
33496;BME280;19836;55.812;37.560;2023-07-16T04:35:37;99461.03;;;18.55;77.72
33496;BME280;19836;55.812;37.560;2023-07-16T04:38:03;99459.53;;;18.51;78.02
33496;BME280;19836;55.812;37.560;2023-07-16T04:40:30;99453.13;;;18.52;77.66
33496;BME280;19836;55.812;37.560;2023-07-16T04:42:56;99454.66;;;18.56;77.84
33496;BME280;19836;55.812;37.560;2023-07-16T04:45:22;99456.06;;;18.61;77.74
33496;BME280;19836;55.812;37.560;2023-07-16T04:47:48;99452.00;;;18.68;77.57
33496;BME280;19836;55.812;37.560;2023-07-16T04:50:14;99450.78;;;18.72;77.23
33496;BME280;19836;55.812;37.560;2023-07-16T04:52:40;99442.25;;;18.78;77.40
33496;BME280;19836;55.812;37.560;2023-07-16T04:55:06;99448.22;;;18.83;77.27
33496;BME280;19836;55.812;37.560;2023-07-16T04:57:33;99443.75;;;18.82;77.01
33496;BME280;19836;55.812;37.560;2023-07-16T04:59:59;99443.88;;;18.81;77.01
33496;BME280;19836;55.812;37.560;2023-07-16T05:02:25;99453.66;;;18.83;76.94
33496;BME280;19836;55.812;37.560;2023-07-16T05:04:50;99442.81;;;18.83;76.83
33496;BME280;19836;55.812;37.560;2023-07-16T05:07:17;99453.53;;;18.85;76.95
33496;BME280;19836;55.812;37.560;2023-07-16T05:09:43;99436.16;;;18.87;76.71
33496;BME280;19836;55.812;37.560;2023-07-16T05:12:09;99450.09;;;18.95;76.62
33496;BME280;19836;55.812;37.560;2023-07-16T05:14:46;99451.97;;;19.07;76.17
33496;BME280;19836;55.812;37.560;2023-07-16T05:17:15;99448.38;;;19.07;75.99
33496;BME280;19836;55.812;37.560;2023-07-16T05:19:41;99457.81;;;19.01;75.96
33496;BME280;19836;55.812;37.560;2023-07-16T05:22:07;99455.34;;;18.98;76.13
33496;BME280;19836;55.812;37.560;2023-07-16T05:24:33;99456.41;;;18.96;75.91
33496;BME280;19836;55.812;37.560;2023-07-16T05:26:59;99445.56;;;18.96;76.21
33496;BME280;19836;55.812;37.560;2023-07-16T05:29:26;99454.81;;;19.06;76.31
33496;BME280;19836;55.812;37.560;2023-07-16T05:31:52;99457.31;;;19.21;76.22
33496;BME280;19836;55.812;37.560;2023-07-16T05:34:18;99454.34;;;19.38;75.66
33496;BME280;19836;55.812;37.560;2023-07-16T05:36:44;99449.56;;;19.54;75.15
33496;BME280;19836;55.812;37.560;2023-07-16T05:39:11;99452.38;;;19.65;74.49
33496;BME280;19836;55.812;37.560;2023-07-16T05:41:40;99459.97;;;19.73;74.01
33496;BME280;19836;55.812;37.560;2023-07-16T05:44:07;99465.84;;;19.79;73.84
33496;BME280;19836;55.812;37.560;2023-07-16T05:46:34;99459.88;;;19.87;73.32
33496;BME280;19836;55.812;37.560;2023-07-16T05:49:00;99460.81;;;19.98;73.16
33496;BME280;19836;55.812;37.560;2023-07-16T05:51:26;99466.66;;;20.05;72.63
33496;BME280;19836;55.812;37.560;2023-07-16T05:53:52;99468.00;;;20.12;72.59
33496;BME280;19836;55.812;37.560;2023-07-16T05:56:18;99470.38;;;20.16;72.14
33496;BME280;19836;55.812;37.560;2023-07-16T05:58:44;99460.81;;;20.23;72.33
33496;BME280;19836;55.812;37.560;2023-07-16T06:01:10;99456.00;;;20.27;71.93
33496;BME280;19836;55.812;37.560;2023-07-16T06:03:38;99460.09;;;20.32;71.83
33496;BME280;19836;55.812;37.560;2023-07-16T06:06:04;99462.25;;;20.40;71.23
33496;BME280;19836;55.812;37.560;2023-07-16T06:08:30;99461.69;;;20.47;71.10
33496;BME280;19836;55.812;37.560;2023-07-16T06:10:56;99461.53;;;20.61;71.00
33496;BME280;19836;55.812;37.560;2023-07-16T06:13:25;99469.06;;;20.81;70.42
33496;BME280;19836;55.812;37.560;2023-07-16T06:15:51;99452.56;;;20.95;70.10
33496;BME280;19836;55.812;37.560;2023-07-16T06:18:17;99461.00;;;21.03;69.80
33496;BME280;19836;55.812;37.560;2023-07-16T06:20:44;99472.03;;;21.02;69.38
33496;BME280;19836;55.812;37.560;2023-07-16T06:23:11;99462.47;;;20.96;69.49
33496;BME280;19836;55.812;37.560;2023-07-16T06:25:37;99467.84;;;20.85;69.61
33496;BME280;19836;55.812;37.560;2023-07-16T06:28:03;99467.84;;;20.85;69.61
33496;BME280;19836;55.812;37.560;2023-07-16T06:30:30;99469.78;;;20.83;69.50
33496;BME280;19836;55.812;37.560;2023-07-16T06:32:59;99465.13;;;20.85;69.51
33496;BME280;19836;55.812;37.560;2023-07-16T06:35:25;99470.13;;;20.91;69.66
33496;BME280;19836;55.812;37.560;2023-07-16T06:37:51;99468.94;;;21.06;69.46
33496;BME280;19836;55.812;37.560;2023-07-16T06:40:17;99467.03;;;21.19;69.37
33496;BME280;19836;55.812;37.560;2023-07-16T06:42:45;99475.75;;;21.35;68.62
33496;BME280;19836;55.812;37.560;2023-07-16T06:45:11;99470.13;;;21.26;68.61
33496;BME280;19836;55.812;37.560;2023-07-16T06:47:37;99467.97;;;21.07;68.85
33496;BME280;19836;55.812;37.560;2023-07-16T06:50:03;99474.25;;;20.97;69.05
33496;BME280;19836;55.812;37.560;2023-07-16T06:52:30;99470.66;;;20.96;69.31
33496;BME280;19836;55.812;37.560;2023-07-16T06:54:57;99478.09;;;20.94;69.42
33496;BME280;19836;55.812;37.560;2023-07-16T06:57:23;99477.94;;;20.96;69.37
33496;BME280;19836;55.812;37.560;2023-07-16T06:59:49;99489.34;;;21.01;69.44
33496;BME280;19836;55.812;37.560;2023-07-16T07:02:16;99484.03;;;20.99;69.39
33496;BME280;19836;55.812;37.560;2023-07-16T07:04:43;99487.03;;;21.07;69.42
33496;BME280;19836;55.812;37.560;2023-07-16T07:07:09;99488.94;;;21.18;68.89
33496;BME280;19836;55.812;37.560;2023-07-16T07:09:36;99480.88;;;21.16;68.75
33496;BME280;19836;55.812;37.560;2023-07-16T07:12:02;99485.59;;;21.14;68.52
33496;BME280;19836;55.812;37.560;2023-07-16T07:14:28;99494.13;;;21.21;68.43
33496;BME280;19836;55.812;37.560;2023-07-16T07:16:54;99482.41;;;21.31;68.24
33496;BME280;19836;55.812;37.560;2023-07-16T07:19:20;99491.38;;;21.44;68.10
33496;BME280;19836;55.812;37.560;2023-07-16T07:21:46;99485.09;;;21.66;67.50
33496;BME280;19836;55.812;37.560;2023-07-16T07:24:12;99488.13;;;21.74;66.80
33496;BME280;19836;55.812;37.560;2023-07-16T07:26:38;99483.91;;;21.70;66.33
33496;BME280;19836;55.812;37.560;2023-07-16T07:29:05;99485.59;;;21.60;66.81
33496;BME280;19836;55.812;37.560;2023-07-16T07:31:31;99494.13;;;21.44;67.34
33496;BME280;19836;55.812;37.560;2023-07-16T07:33:56;99498.03;;;21.29;67.79
33496;BME280;19836;55.812;37.560;2023-07-16T07:36:23;99493.78;;;21.14;68.10
33496;BME280;19836;55.812;37.560;2023-07-16T07:38:52;99489.88;;;21.06;68.34
33496;BME280;19836;55.812;37.560;2023-07-16T07:41:18;99486.97;;;21.20;68.58
33496;BME280;19836;55.812;37.560;2023-07-16T07:43:44;99472.06;;;21.58;68.07
33496;BME280;19836;55.812;37.560;2023-07-16T07:46:12;99483.94;;;22.14;66.98
33496;BME280;19836;55.812;37.560;2023-07-16T07:48:38;99479.22;;;22.49;65.76
33496;BME280;19836;55.812;37.560;2023-07-16T07:51:10;99472.69;;;22.83;64.59
33496;BME280;19836;55.812;37.560;2023-07-16T07:53:36;99481.19;;;23.00;63.58
33496;BME280;19836;55.812;37.560;2023-07-16T07:56:02;99478.16;;;23.03;62.73
33496;BME280;19836;55.812;37.560;2023-07-16T07:58:31;99477.44;;;23.01;62.41
33496;BME280;19836;55.812;37.560;2023-07-16T08:01:04;99476.19;;;23.05;62.08
33496;BME280;19836;55.812;37.560;2023-07-16T08:03:30;99474.53;;;23.14;61.40
33496;BME280;19836;55.812;37.560;2023-07-16T08:05:56;99473.66;;;23.13;61.05
33496;BME280;19836;55.812;37.560;2023-07-16T08:08:22;99475.38;;;23.14;60.96
33496;BME280;19836;55.812;37.560;2023-07-16T08:10:49;99475.38;;;23.14;60.84
33496;BME280;19836;55.812;37.560;2023-07-16T08:13:14;99473.66;;;23.13;60.93
33496;BME280;19836;55.812;37.560;2023-07-16T08:15:44;99483.13;;;23.09;61.27
33496;BME280;19836;55.812;37.560;2023-07-16T08:18:10;99483.69;;;22.92;61.34
33496;BME280;19836;55.812;37.560;2023-07-16T08:20:36;99480.75;;;22.73;61.68
33496;BME280;19836;55.812;37.560;2023-07-16T08:23:06;99487.72;;;22.77;62.23
33496;BME280;19836;55.812;37.560;2023-07-16T08:25:33;99487.31;;;22.93;62.05
33496;BME280;19836;55.812;37.560;2023-07-16T08:28:02;99486.91;;;22.97;62.04
33496;BME280;19836;55.812;37.560;2023-07-16T08:30:28;99487.78;;;22.98;62.47
33496;BME280;19836;55.812;37.560;2023-07-16T08:32:54;99488.16;;;22.93;62.72
33496;BME280;19836;55.812;37.560;2023-07-16T08:35:20;99485.22;;;22.85;62.85
33496;BME280;19836;55.812;37.560;2023-07-16T08:37:46;99472.41;;;23.17;62.53
33496;BME280;19836;55.812;37.560;2023-07-16T08:40:12;99487.47;;;23.43;61.51
33496;BME280;19836;55.812;37.560;2023-07-16T08:42:39;99482.78;;;23.34;61.52
33496;BME280;19836;55.812;37.560;2023-07-16T08:45:06;99484.84;;;23.21;61.73
33496;BME280;19836;55.812;37.560;2023-07-16T08:47:35;99474.84;;;23.31;61.16
33496;BME280;19836;55.812;37.560;2023-07-16T08:50:01;99477.06;;;23.37;60.44
33496;BME280;19836;55.812;37.560;2023-07-16T08:52:30;99473.84;;;23.32;60.56
33496;BME280;19836;55.812;37.560;2023-07-16T08:54:56;99480.50;;;23.39;60.80
33496;BME280;19836;55.812;37.560;2023-07-16T08:57:23;99468.31;;;23.43;60.82
33496;BME280;19836;55.812;37.560;2023-07-16T08:59:50;99477.75;;;23.50;60.78
33496;BME280;19836;55.812;37.560;2023-07-16T09:02:20;99466.78;;;23.71;60.28
33496;BME280;19836;55.812;37.560;2023-07-16T09:04:47;99468.03;;;23.87;59.65
33496;BME280;19836;55.812;37.560;2023-07-16T09:07:15;99469.88;;;23.87;59.17
33496;BME280;19836;55.812;37.560;2023-07-16T09:09:41;99459.81;;;23.67;59.15
33496;BME280;19836;55.812;37.560;2023-07-16T09:12:13;99462.59;;;23.46;59.19
33496;BME280;19836;55.812;37.560;2023-07-16T09:14:42;99465.88;;;23.40;59.48
33496;BME280;19836;55.812;37.560;2023-07-16T09:17:09;99472.78;;;23.44;59.74
33496;BME280;19836;55.812;37.560;2023-07-16T09:19:45;99474.06;;;23.40;59.65
33496;BME280;19836;55.812;37.560;2023-07-16T09:22:11;99472.06;;;23.42;59.55
33496;BME280;19836;55.812;37.560;2023-07-16T09:24:37;99466.34;;;23.45;59.75
33496;BME280;19836;55.812;37.560;2023-07-16T09:27:03;99465.16;;;23.68;59.96
33496;BME280;19836;55.812;37.560;2023-07-16T09:29:30;99476.38;;;24.85;58.03
33496;BME280;19836;55.812;37.560;2023-07-16T09:32:00;99465.38;;;26.63;54.37
33496;BME280;19836;55.812;37.560;2023-07-16T09:34:31;99458.28;;;28.59;50.99
33496;BME280;19836;55.812;37.560;2023-07-16T09:36:58;99459.00;;;30.23;47.29
33496;BME280;19836;55.812;37.560;2023-07-16T09:39:25;99458.09;;;31.38;44.00
33496;BME280;19836;55.812;37.560;2023-07-16T09:41:52;99467.13;;;32.14;41.40
33496;BME280;19836;55.812;37.560;2023-07-16T09:44:18;99461.06;;;32.91;39.32
33496;BME280;19836;55.812;37.560;2023-07-16T09:46:46;99457.94;;;33.15;38.01
33496;BME280;19836;55.812;37.560;2023-07-16T09:49:14;99460.31;;;33.96;36.63
33496;BME280;19836;55.812;37.560;2023-07-16T09:51:43;99465.53;;;35.01;35.06
33496;BME280;19836;55.812;37.560;2023-07-16T09:54:14;99469.94;;;34.48;34.56
33496;BME280;19836;55.812;37.560;2023-07-16T09:56:47;99466.06;;;32.01;35.94
33496;BME280;19836;55.812;37.560;2023-07-16T09:59:20;99469.50;;;30.35;38.40
33496;BME280;19836;55.812;37.560;2023-07-16T10:01:46;99476.38;;;31.16;38.43
33496;BME280;19836;55.812;37.560;2023-07-16T10:04:14;99460.19;;;32.62;36.76
33496;BME280;19836;55.812;37.560;2023-07-16T10:06:54;99455.47;;;34.32;34.31
33496;BME280;19836;55.812;37.560;2023-07-16T10:09:36;99457.38;;;34.99;32.86
33496;BME280;19836;55.812;37.560;2023-07-16T10:12:20;99460.44;;;35.17;31.67
33496;BME280;19836;55.812;37.560;2023-07-16T10:14:53;99451.06;;;35.25;31.38
33496;BME280;19836;55.812;37.560;2023-07-16T10:17:26;99443.03;;;35.95;30.43
33496;BME280;19836;55.812;37.560;2023-07-16T10:22:41;99462.78;;;33.28;32.43
33496;BME280;19836;55.812;37.560;2023-07-16T10:25:10;99457.97;;;31.32;34.53
33496;BME280;19836;55.812;37.560;2023-07-16T10:27:36;99454.00;;;32.31;34.67
33496;BME280;19836;55.812;37.560;2023-07-16T10:30:04;99453.28;;;33.79;33.30
33496;BME280;19836;55.812;37.560;2023-07-16T10:32:33;99448.38;;;35.04;31.71
33496;BME280;19836;55.812;37.560;2023-07-16T10:35:00;99449.00;;;35.66;31.27
33496;BME280;19836;55.812;37.560;2023-07-16T10:37:26;99453.38;;;34.13;31.47
33496;BME280;19836;55.812;37.560;2023-07-16T10:39:54;99462.03;;;32.55;33.54
33496;BME280;19836;55.812;37.560;2023-07-16T10:42:23;99451.13;;;33.18;32.83
33496;BME280;19836;55.812;37.560;2023-07-16T10:44:50;99454.16;;;34.62;30.79
33496;BME280;19836;55.812;37.560;2023-07-16T10:47:22;99445.09;;;35.41;29.97
33496;BME280;19836;55.812;37.560;2023-07-16T10:49:49;99448.59;;;36.53;29.08
33496;BME280;19836;55.812;37.560;2023-07-16T10:52:15;99448.97;;;37.27;28.30
33496;BME280;19836;55.812;37.560;2023-07-16T10:54:41;99451.22;;;37.56;28.46
33496;BME280;19836;55.812;37.560;2023-07-16T10:57:07;99437.38;;;37.92;27.34
33496;BME280;19836;55.812;37.560;2023-07-16T10:59:33;99438.94;;;36.10;27.88
33496;BME280;19836;55.812;37.560;2023-07-16T11:01:59;99450.91;;;33.76;29.90
33496;BME280;19836;55.812;37.560;2023-07-16T11:04:26;99449.66;;;33.01;31.43
33496;BME280;19836;55.812;37.560;2023-07-16T11:06:51;99446.44;;;32.39;32.23
33496;BME280;19836;55.812;37.560;2023-07-16T11:09:17;99441.91;;;33.32;32.25
33496;BME280;19836;55.812;37.560;2023-07-16T11:11:44;99445.16;;;35.00;30.52
33496;BME280;19836;55.812;37.560;2023-07-16T11:14:09;99440.47;;;36.26;28.67
33496;BME280;19836;55.812;37.560;2023-07-16T11:16:36;99439.63;;;37.46;26.82
33496;BME280;19836;55.812;37.560;2023-07-16T11:19:06;99438.09;;;38.12;26.37
33496;BME280;19836;55.812;37.560;2023-07-16T11:21:36;99437.00;;;38.13;25.80
33496;BME280;19836;55.812;37.560;2023-07-16T11:24:14;99440.44;;;38.93;25.54
33496;BME280;19836;55.812;37.560;2023-07-16T11:26:51;99427.59;;;38.68;24.86
33496;BME280;19836;55.812;37.560;2023-07-16T11:29:17;99420.13;;;38.62;25.43
33496;BME280;19836;55.812;37.560;2023-07-16T11:31:43;99427.91;;;38.96;25.05
33496;BME280;19836;55.812;37.560;2023-07-16T11:34:13;99432.63;;;39.31;24.18
33496;BME280;19836;55.812;37.560;2023-07-16T11:36:39;99437.31;;;39.19;23.75
33496;BME280;19836;55.812;37.560;2023-07-16T11:39:05;99429.25;;;39.41;23.74
33496;BME280;19836;55.812;37.560;2023-07-16T11:41:31;99435.28;;;39.56;24.03
33496;BME280;19836;55.812;37.560;2023-07-16T11:44:00;99434.69;;;39.95;23.74
33496;BME280;19836;55.812;37.560;2023-07-16T11:46:31;99433.72;;;39.12;23.89
33496;BME280;19836;55.812;37.560;2023-07-16T11:49:01;99438.50;;;39.12;23.80
33496;BME280;19836;55.812;37.560;2023-07-16T11:51:27;99435.88;;;38.99;23.36
33496;BME280;19836;55.812;37.560;2023-07-16T11:53:55;99431.81;;;39.13;23.76
33496;BME280;19836;55.812;37.560;2023-07-16T11:56:22;99431.84;;;39.24;23.53
33496;BME280;19836;55.812;37.560;2023-07-16T11:58:49;99430.28;;;38.38;23.75
33496;BME280;19836;55.812;37.560;2023-07-16T12:01:15;99443.34;;;36.83;25.40
33496;BME280;19836;55.812;37.560;2023-07-16T12:03:41;99443.72;;;37.81;24.75
33496;BME280;19836;55.812;37.560;2023-07-16T12:06:08;99449.22;;;38.79;23.88
33496;BME280;19836;55.812;37.560;2023-07-16T12:08:34;99435.84;;;39.17;23.18
33496;BME280;19836;55.812;37.560;2023-07-16T12:11:00;99438.34;;;38.28;24.06
33496;BME280;19836;55.812;37.560;2023-07-16T12:13:31;99433.59;;;35.76;26.51
33496;BME280;19836;55.812;37.560;2023-07-16T12:15:57;99422.53;;;34.08;28.32
33496;BME280;19836;55.812;37.560;2023-07-16T12:18:23;99423.50;;;33.73;29.46
33496;BME280;19836;55.812;37.560;2023-07-16T12:20:49;99423.78;;;35.07;28.30
33496;BME280;19836;55.812;37.560;2023-07-16T12:23:15;99418.88;;;35.22;27.66
33496;BME280;19836;55.812;37.560;2023-07-16T12:25:42;99415.69;;;34.10;28.70
33496;BME280;19836;55.812;37.560;2023-07-16T12:28:09;99411.06;;;32.77;30.10
33496;BME280;19836;55.812;37.560;2023-07-16T12:30:35;99405.63;;;31.82;31.44
33496;BME280;19836;55.812;37.560;2023-07-16T12:33:24;99418.06;;;31.18;32.47
33496;BME280;19836;55.812;37.560;2023-07-16T12:36:19;99422.06;;;30.85;33.22
33496;BME280;19836;55.812;37.560;2023-07-16T12:38:47;99426.47;;;30.71;33.55
33496;BME280;19836;55.812;37.560;2023-07-16T12:41:13;99423.97;;;31.83;32.83
33496;BME280;19836;55.812;37.560;2023-07-16T12:43:40;99421.16;;;34.25;29.94
33496;BME280;19836;55.812;37.560;2023-07-16T12:46:06;99413.84;;;35.78;28.20
33496;BME280;19836;55.812;37.560;2023-07-16T12:48:33;99431.34;;;36.63;26.73
33496;BME280;19836;55.812;37.560;2023-07-16T12:50:59;99421.75;;;37.03;25.58
33496;BME280;19836;55.812;37.560;2023-07-16T12:53:27;99426.88;;;37.50;25.08
33496;BME280;19836;55.812;37.560;2023-07-16T12:55:53;99418.97;;;37.78;24.77
33496;BME280;19836;55.812;37.560;2023-07-16T12:58:19;99426.13;;;37.67;24.81